Terminal Aerodrome Forecast
Issued by NWS

Home | Current Version | Previous Version | Text Only | Print | Product List | Glossary On
Versions: 1 2 3 4 5 6 7 8 9 10 11 12 13 14
000
FTUS42 KMLB 051720
TAFISM
TAF
KISM 051720Z 0518/0618 18012G18KT P6SM BKN025
     FM060000 14006KT P6SM VCSH BKN040
     FM060600 17008KT P6SM SCT003 BKN010
     FM061500 20016KT P6SM VCSH SCT020 BKN040=

USA.gov is the U.S. government's official web portal to all federal, state and local government web resources and services.